Terminal Aerodrome Forecast
Issued by NWS

Home | Current Version | Previous Version | Text Only | Print | Product List | Glossary On
Versions: 1 2 3 4 5 6 7 8 9 10 11 12 13 14 15 16 17 18 19 20 21 22 23 24 25 26 27 28 29 30 31 32 33 34 35 36 37 38 39 40 41 42 43 44 45 46 47 48 49 50
000
FTUS41 KBOX 172051 AAA
TAFBAF
TAF AMD
KBAF 172051Z 1721/1818 19009KT P6SM OVC200
     FM180100 17005KT 1SM -SN OVC040
     FM180300 VRB03KT 1/4SM +SN OVC015
     FM180500 00000KT 1/2SM SN OVC008
     FM181000 31004KT P6SM BKN020
     FM181200 31007KT P6SM SCT200
     FM181400 32011G21KT P6SM FEW250=

USA.gov is the U.S. government's official web portal to all federal, state and local government web resources and services.